Time;durP1;ratioP1;P1;durP2;ratioP2;P2;SDS_P1;SDS_P2;PMS_P1;PMS_P2;Temp;Humidity;BMP_temperature;BMP_pressure;BME280_temperature;BME280_humidity;BME280_pressure;Samples;Min_cycle;Max_cycle;Signal;HPM_P1;HPM_P2
2022/05/19 00:02:11;;;;;;;2.35;1.15;;;;;;;4.27;75.29;96810.76;1654002;87;21482;-72
2022/05/19 00:04:39;;;;;;;1.60;1.00;;;;;;;4.21;75.60;96811.49;1654061;87;21035;-72
2022/05/19 00:07:07;;;;;;;4.73;1.20;;;;;;;4.15;74.89;96814.36;1653972;86;21095;-73
2022/05/19 00:09:34;;;;;;;2.83;1.40;;;;;;;4.11;75.91;96809.49;1653747;87;21080;-73
2022/05/19 00:12:09;;;;;;;2.07;1.50;;;;;;;4.02;76.67;96813.16;1654121;87;21076;-73
2022/05/19 00:14:36;;;;;;;2.57;1.20;;;;;;;3.96;77.23;96807.36;1653895;87;21067;-72
2022/05/19 00:17:05;;;;;;;3.50;1.10;;;;;;;3.94;77.62;96805.55;1654270;87;21507;-73
2022/05/19 00:19:31;;;;;;;4.20;1.20;;;;;;;3.89;76.68;96806.73;1654173;87;21051;-73
2022/05/19 00:21:58;;;;;;;4.07;0.93;;;;;;;3.77;75.75;96807.27;1654121;86;21518;-72
2022/05/19 00:24:27;;;;;;;2.37;0.80;;;;;;;3.78;75.82;96806.84;1654084;87;21614;-73
2022/05/19 00:26:53;;;;;;;2.73;1.10;;;;;;;3.79;76.97;96811.24;1654130;87;21499;-73
2022/05/19 00:29:20;;;;;;;3.80;1.10;;;;;;;3.66;77.87;96816.13;1654135;87;21052;-73
2022/05/19 00:31:47;;;;;;;4.83;1.50;;;;;;;3.69;78.31;96820.11;1654252;87;21060;-73
2022/05/19 00:34:13;;;;;;;3.07;1.00;;;;;;;3.68;78.72;96817.48;1654258;86;21032;-73
2022/05/19 00:36:41;;;;;;;1.20;0.97;;;;;;;3.77;77.83;96821.63;1653968;87;21009;-73
2022/05/19 00:39:10;;;;;;;4.13;1.03;;;;;;;3.63;78.10;96826.48;1654265;86;21044;-73
2022/05/19 00:41:43;;;;;;;0.90;0.80;;;;;;;3.66;78.25;96825.69;1654355;87;21040;-73
2022/05/19 00:44:10;;;;;;;1.37;0.90;;;;;;;3.73;77.30;96825.41;1654184;87;21092;-73
2022/05/19 00:46:55;;;;;;;2.67;1.20;;;;;;;3.73;76.60;96821.11;1654140;87;21071;-73
2022/05/19 00:49:27;;;;;;;1.00;0.73;;;;;;;3.73;76.35;96810.66;1654268;86;21077;-73
2022/05/19 00:52:14;;;;;;;1.37;0.90;;;;;;;3.68;76.41;96816.17;1654114;86;21091;-72
2022/05/19 00:54:49;;;;;;;1.57;1.33;;;;;;;3.75;76.81;96825.92;1653474;87;21047;-72
2022/05/19 00:57:27;;;;;;;5.90;1.43;;;;;;;3.76;77.18;96834.66;1654102;87;21569;-72
2022/05/19 01:00:02;;;;;;;1.80;1.33;;;;;;;3.78;76.89;96827.73;1654248;87;21514;-72
2022/05/19 01:02:37;;;;;;;2.60;1.13;;;;;;;3.71;76.78;96824.52;1654132;87;21534;-73
2022/05/19 01:05:21;;;;;;;4.67;1.00;;;;;;;3.63;76.39;96823.00;1653508;87;21096;-72
2022/05/19 01:08:14;;;;;;;2.37;1.00;;;;;;;3.63;76.52;96823.88;1654433;87;21044;-73
2022/05/19 01:10:41;;;;;;;2.65;0.80;;;;;;;3.52;76.83;96830.50;1675579;86;21126;-73
2022/05/19 01:13:11;;;;;;;1.27;1.00;;;;;;;3.55;76.30;96824.05;1675548;86;21580;-73
2022/05/19 01:15:44;;;;;;;5.07;1.00;;;;;;;3.49;75.65;96826.50;1675620;86;21080;-73
2022/05/19 01:18:14;;;;;;;3.50;1.12;;;;;;;3.47;75.81;96822.53;1675636;86;21505;-73
2022/05/19 01:20:43;;;;;;;1.50;1.00;;;;;;;3.37;76.73;96819.62;1675410;86;21012;-73
2022/05/19 01:23:30;;;;;;;1.70;1.17;;;;;;;3.35;76.89;96817.39;1654310;87;21038;-73
2022/05/19 01:26:45;;;;;;;4.03;1.13;;;;;;;3.23;77.13;96827.06;1675451;86;21573;-73
2022/05/19 01:29:15;;;;;;;1.23;0.77;;;;;;;3.01;78.19;96828.14;1675557;86;21046;-73
2022/05/19 01:31:51;;;;;;;1.63;0.70;;;;;;;2.97;78.26;96830.17;1675135;86;21545;-73
2022/05/19 01:34:23;;;;;;;1.53;0.83;;;;;;;2.92;79.33;96829.14;1675573;86;21027;-73
2022/05/19 01:36:50;;;;;;;2.00;0.80;;;;;;;2.91;78.18;96824.78;1675509;86;21537;-72
2022/05/19 01:39:24;;;;;;;0.77;0.60;;;;;;;2.99;77.91;96822.86;1675414;86;21039;-72
2022/05/19 01:42:37;;;;;;;2.40;0.80;;;;;;;3.15;77.73;96824.63;1654386;87;21082;-72
2022/05/19 01:45:43;;;;;;;1.43;0.77;;;;;;;3.14;77.22;96820.26;1675514;86;21059;-73
2022/05/19 01:48:45;;;;;;;2.30;1.00;;;;;;;2.93;78.16;96817.90;1675289;86;21593;-73
2022/05/19 01:51:44;;;;;;;3.60;1.07;;;;;;;2.90;78.36;96818.69;1666495;86;21087;-73
2022/05/19 01:54:37;;;;;;;1.47;0.80;;;;;;;2.90;78.78;96822.99;1596855;86;21075;-73
2022/05/19 01:57:29;;;;;;;4.37;0.90;;;;;;;2.98;78.03;96821.53;1654350;87;21025;-73
2022/05/19 02:00:10;;;;;;;0.93;0.67;;;;;;;2.95;77.38;96807.98;1675559;86;21469;-73
2022/05/19 02:03:01;;;;;;;;;;;;;;;2.99;77.25;96804.61;1678107;86;21553;-73
2022/05/19 02:05:36;;;;;;;4.00;1.30;;;;;;;2.99;76.85;96807.22;1675519;86;20422;-73
2022/05/19 02:08:08;;;;;;;1.37;0.60;;;;;;;2.88;76.70;96807.33;1649443;87;21027;-73
2022/05/19 02:10:40;;;;;;;0.70;0.57;;;;;;;2.84;76.94;96806.75;1646562;87;21104;-73
2022/05/19 02:13:08;;;;;;;2.80;0.70;;;;;;;2.71;77.07;96802.88;1646936;87;21008;-72
2022/05/19 02:15:39;;;;;;;1.93;1.00;;;;;;;2.66;77.43;96803.16;1646808;87;21048;-72
2022/05/19 02:18:07;;;;;;;3.20;1.03;;;;;;;2.67;78.35;96805.34;1646808;87;21274;-73
2022/05/19 02:20:36;;;;;;;3.93;1.30;;;;;;;2.72;78.00;96811.19;1646778;87;21072;-73
2022/05/19 02:23:03;;;;;;;2.60;1.27;;;;;;;2.72;77.68;96807.67;1646655;87;21072;-72
2022/05/19 02:25:37;;;;;;;1.17;0.90;;;;;;;2.55;78.32;96814.55;1646779;87;21479;-73
2022/05/19 02:28:09;;;;;;;1.10;0.80;;;;;;;2.53;77.93;96820.13;1646966;87;21059;-72
2022/05/19 02:30:38;;;;;;;1.80;0.70;;;;;;;2.43;77.68;96816.77;1646800;87;21060;-73
2022/05/19 02:33:05;;;;;;;3.70;0.80;;;;;;;2.38;77.64;96835.27;1646819;87;20985;-73
2022/05/19 02:35:32;;;;;;;1.73;0.90;;;;;;;2.36;77.41;96833.90;1646805;87;21040;-73
2022/05/19 02:38:00;;;;;;;1.00;0.73;;;;;;;2.32;77.36;96833.77;1646541;87;21024;-73
2022/05/19 02:40:31;;;;;;;2.43;0.90;;;;;;;2.26;77.43;96830.95;1646868;87;21607;-73
2022/05/19 02:42:59;;;;;;;1.00;0.80;;;;;;;2.30;77.36;96835.44;1646725;87;21052;-73
2022/05/19 02:45:27;;;;;;;2.20;0.73;;;;;;;2.33;77.37;96835.53;1646795;87;21021;-73
2022/05/19 02:47:55;;;;;;;1.27;0.70;;;;;;;2.35;78.60;96835.17;1646780;87;21037;-73
2022/05/19 02:50:24;;;;;;;2.83;1.10;;;;;;;2.32;79.57;96833.35;1646782;87;21033;-73
2022/05/19 02:52:51;;;;;;;1.70;1.00;;;;;;;2.31;78.85;96839.80;1646728;87;21547;-73
2022/05/19 02:55:18;;;;;;;1.33;0.80;;;;;;;2.19;78.56;96844.16;1646776;87;21052;-73
2022/05/19 02:57:47;;;;;;;1.23;0.87;;;;;;;2.15;78.90;96841.89;1646896;87;21471;-73
2022/05/19 03:00:19;;;;;;;1.53;0.60;;;;;;;2.22;79.17;96836.48;1646810;87;20988;-73
2022/05/19 03:02:46;;;;;;;1.60;1.20;;;;;;;2.18;78.83;96840.23;1646973;87;21040;-73
2022/05/19 03:05:18;;;;;;;2.43;1.40;;;;;;;2.09;79.05;96839.09;1646835;87;21470;-73
2022/05/19 03:07:45;;;;;;;2.43;0.80;;;;;;;2.20;78.61;96842.48;1649422;86;21024;-72
2022/05/19 03:10:15;;;;;;;2.67;0.70;;;;;;;2.18;78.61;96845.44;1654073;87;21025;-73
2022/05/19 03:12:42;;;;;;;1.53;0.73;;;;;;;2.21;78.51;96841.62;1654224;87;21040;-73
2022/05/19 03:15:10;;;;;;;2.20;0.60;;;;;;;2.24;79.32;96845.63;1654227;87;21087;-73
2022/05/19 03:17:37;;;;;;;4.60;0.80;;;;;;;2.30;79.98;96852.36;1654041;87;21557;-73
2022/05/19 03:20:07;;;;;;;2.27;0.63;;;;;;;2.42;79.13;96851.47;1654034;87;21052;-74
2022/05/19 03:22:34;;;;;;;6.40;2.57;;;;;;;2.47;78.89;96844.69;1654097;87;21051;-73
2022/05/19 03:25:01;;;;;;;10.57;7.43;;;;;;;2.51;79.58;96848.27;1654087;87;21080;-73
2022/05/19 03:27:27;;;;;;;11.63;6.80;;;;;;;2.61;79.79;96855.55;1654073;87;21072;-73
2022/05/19 03:29:54;;;;;;;12.60;7.93;;;;;;;2.70;79.21;96855.86;1654031;87;21052;-73
2022/05/19 03:32:21;;;;;;;11.13;6.50;;;;;;;2.80;78.36;96852.70;1654209;87;21020;-73
2022/05/19 03:34:47;;;;;;;16.23;8.27;;;;;;;2.85;78.50;96851.94;1654141;87;21060;-73
2022/05/19 03:37:16;;;;;;;11.23;8.03;;;;;;;2.88;78.53;96855.98;1653987;87;21040;-73
2022/05/19 03:39:42;;;;;;;8.00;4.67;;;;;;;3.01;78.38;96860.73;1654024;87;21084;-73
2022/05/19 03:42:09;;;;;;;5.90;3.17;;;;;;;3.10;77.99;96854.50;1654159;87;21493;-73
2022/05/19 03:44:37;;;;;;;3.67;2.10;;;;;;;3.15;77.32;96863.73;1653918;87;21393;-74
2022/05/19 03:47:05;;;;;;;3.17;1.67;;;;;;;3.04;78.07;96862.12;1654127;87;20996;-73
2022/05/19 03:49:33;;;;;;;2.63;1.47;;;;;;;3.08;78.34;96860.08;1654196;87;21588;-74
2022/05/19 03:52:00;;;;;;;4.07;1.90;;;;;;;3.14;78.67;96860.25;1654138;87;21013;-74
2022/05/19 03:54:27;;;;;;;3.30;1.80;;;;;;;3.22;78.98;96858.75;1654093;86;21040;-75
2022/05/19 03:56:53;;;;;;;2.90;1.90;;;;;;;3.31;78.75;96868.59;1654212;87;21024;-75
2022/05/19 03:59:20;;;;;;;1.97;1.40;;;;;;;3.38;78.92;96863.16;1654224;87;21024;-75
2022/05/19 04:01:47;;;;;;;2.57;1.60;;;;;;;3.40;79.40;96858.45;1654179;87;21478;-75
2022/05/19 04:04:14;;;;;;;2.03;1.40;;;;;;;3.49;78.57;96863.03;1654263;86;21578;-75
2022/05/19 04:06:42;;;;;;;3.17;1.63;;;;;;;3.58;79.52;96856.79;1654165;87;21491;-74
2022/05/19 04:09:09;;;;;;;3.93;2.03;;;;;;;3.66;79.67;96854.39;1653998;86;21056;-74
2022/05/19 04:11:35;;;;;;;2.87;1.70;;;;;;;3.79;79.62;96856.92;1654276;87;21036;-75
2022/05/19 04:14:02;;;;;;;2.53;1.60;;;;;;;3.87;79.54;96853.67;1653960;87;21083;-75
2022/05/19 04:16:29;;;;;;;2.90;1.73;;;;;;;3.99;79.21;96849.64;1654267;86;21040;-75
2022/05/19 04:18:56;;;;;;;2.47;1.73;;;;;;;4.12;78.96;96855.22;1654187;87;21036;-75
2022/05/19 04:21:22;;;;;;;2.20;1.50;;;;;;;4.21;79.05;96859.83;1654196;87;21101;-75
2022/05/19 04:23:49;;;;;;;6.23;2.17;;;;;;;4.31;78.89;96855.30;1654093;87;21017;-75
2022/05/19 04:26:15;;;;;;;2.33;1.70;;;;;;;4.45;78.37;96863.91;1654275;87;21507;-75
2022/05/19 04:28:42;;;;;;;6.73;2.40;;;;;;;4.53;78.32;96852.78;1654099;87;21020;-75
2022/05/19 04:31:08;;;;;;;5.00;2.00;;;;;;;4.67;77.92;96865.34;1654238;87;21040;-75
2022/05/19 04:33:34;;;;;;;2.23;1.67;;;;;;;4.76;77.53;96858.61;1654255;87;21056;-75
2022/05/19 04:36:03;;;;;;;3.37;1.23;;;;;;;4.85;77.62;96852.70;1653971;86;21017;-75
2022/05/19 04:38:30;;;;;;;1.77;1.50;;;;;;;4.96;77.03;96843.78;1654057;87;21040;-75
2022/05/19 04:41:04;;;;;;;3.13;2.13;;;;;;;5.08;76.47;96850.61;1654160;86;21047;-75
2022/05/19 04:43:30;;;;;;;4.08;2.30;;;;;;;5.19;77.11;96854.38;1654799;86;21048;-75
2022/05/19 04:45:58;;;;;;;6.27;3.03;;;;;;;5.23;77.04;96847.89;1654145;87;21060;-74
2022/05/19 04:48:25;;;;;;;6.90;2.90;;;;;;;5.39;76.86;96843.03;1654194;87;21087;-74
2022/05/19 04:50:57;;;;;;;6.07;2.03;;;;;;;5.51;76.13;96833.23;1654244;87;21565;-74
2022/05/19 04:53:25;;;;;;;8.93;2.50;;;;;;;5.72;75.76;96837.13;1654095;87;21052;-74
2022/05/19 04:55:53;;;;;;;7.43;3.13;;;;;;;5.95;75.74;96831.10;1654010;87;21044;-74
2022/05/19 04:58:21;;;;;;;7.77;3.37;;;;;;;6.14;75.50;96834.50;1654443;87;21040;-72
2022/05/19 05:00:50;;;;;;;8.37;2.97;;;;;;;6.34;75.30;96832.24;1653862;87;21128;-77
2022/05/19 05:03:17;;;;;;;7.33;2.80;;;;;;;6.48;74.55;96833.38;1654147;86;20992;-73
2022/05/19 05:05:44;;;;;;;4.73;3.00;;;;;;;6.64;73.37;96829.70;1653694;87;21012;-71
2022/05/19 05:08:11;;;;;;;4.90;2.73;;;;;;;6.85;73.70;96833.09;1653432;86;21127;-72
2022/05/19 05:10:39;;;;;;;7.17;2.50;;;;;;;7.04;73.03;96831.20;1653458;87;21111;-68
2022/05/19 05:13:12;;;;;;;3.70;2.33;;;;;;;7.20;73.09;96825.73;1653989;87;21028;-72
2022/05/19 05:15:41;;;;;;;5.90;2.90;;;;;;;7.36;72.33;96829.05;1654122;86;21060;-67
2022/05/19 05:18:09;;;;;;;3.30;2.43;;;;;;;7.55;72.53;96818.34;1654305;86;21542;-68
2022/05/19 05:20:41;;;;;;;3.27;2.30;;;;;;;7.76;72.66;96814.21;1654270;87;21023;-69
2022/05/19 05:23:08;;;;;;;2.50;2.10;;;;;;;7.96;72.50;96814.45;1653407;87;21124;-69
2022/05/19 05:25:35;;;;;;;3.67;2.20;;;;;;;8.16;71.82;96814.22;1654068;87;21040;-71
2022/05/19 05:28:03;;;;;;;3.43;2.53;;;;;;;8.31;71.50;96816.13;1653938;87;21559;-73
2022/05/19 05:30:30;;;;;;;5.30;1.80;;;;;;;8.46;71.12;96814.11;1653889;87;21052;-70
2022/05/19 05:33:09;;;;;;;3.17;1.90;;;;;;;8.61;70.70;96817.31;1654235;86;21036;-68
2022/05/19 05:35:37;;;;;;;5.53;2.90;;;;;;;8.78;70.06;96820.10;1653887;87;21052;-68
2022/05/19 05:38:03;;;;;;;4.90;2.90;;;;;;;8.87;69.26;96813.16;1653926;87;21044;-68
2022/05/19 05:40:31;;;;;;;11.43;3.57;;;;;;;9.01;67.98;96807.11;1653837;87;21491;-71
2022/05/19 05:43:07;;;;;;;7.73;3.03;;;;;;;9.14;68.44;96801.48;1653955;87;21020;-67
2022/05/19 05:45:34;;;;;;;5.47;2.93;;;;;;;9.28;67.73;96802.02;1654208;87;21538;-66
2022/05/19 05:48:00;;;;;;;5.07;2.30;;;;;;;9.44;67.55;96797.70;1653895;86;21135;-68
2022/05/19 05:50:27;;;;;;;3.80;1.53;;;;;;;9.55;66.67;96800.42;1654254;87;21036;-68
2022/05/19 05:52:53;;;;;;;5.30;1.50;;;;;;;9.71;66.57;96803.55;1653953;86;20996;-68
2022/05/19 05:55:21;;;;;;;11.63;1.60;;;;;;;9.87;65.03;96798.33;1653960;87;21082;-68
2022/05/19 05:57:49;;;;;;;6.93;1.33;;;;;;;10.03;64.20;96807.16;1654106;87;21037;-68
2022/05/19 06:00:18;;;;;;;2.53;1.50;;;;;;;10.17;63.00;96801.49;1653794;87;21467;-67
2022/05/19 06:02:45;;;;;;;3.90;1.57;;;;;;;10.30;59.40;96799.34;1654310;87;21056;-68
2022/05/19 06:05:13;;;;;;;3.73;1.70;;;;;;;10.46;61.34;96802.00;1654109;87;21062;-67
2022/05/19 06:07:40;;;;;;;3.33;2.37;;;;;;;10.64;61.41;96809.97;1653911;87;21088;-68
2022/05/19 06:10:08;;;;;;;5.33;2.27;;;;;;;10.79;59.43;96806.45;1675450;86;21040;-70
2022/05/19 06:12:35;;;;;;;4.97;1.77;;;;;;;10.91;57.95;96803.81;1675004;86;21497;-69
2022/05/19 06:15:02;;;;;;;5.50;1.70;;;;;;;11.02;56.54;96802.47;1675146;86;21085;-71
2022/05/19 06:17:29;;;;;;;7.97;1.67;;;;;;;11.17;58.12;96813.02;1675709;86;21027;-68
2022/05/19 06:19:55;;;;;;;4.83;1.73;;;;;;;11.35;58.57;96815.19;1675547;86;21043;-69
2022/05/19 06:22:22;;;;;;;7.80;1.50;;;;;;;11.53;58.95;96810.30;1675615;86;21055;-69
2022/05/19 06:24:50;;;;;;;3.60;1.40;;;;;;;11.68;55.98;96815.54;1675141;86;21052;-72
2022/05/19 06:27:18;;;;;;;4.00;1.43;;;;;;;11.83;54.48;96820.77;1675420;86;21067;-68
2022/05/19 06:29:44;;;;;;;6.63;1.30;;;;;;;12.02;54.56;96816.33;1675580;86;21023;-71
2022/05/19 06:32:11;;;;;;;3.40;1.20;;;;;;;12.18;50.09;96813.60;1675031;86;21067;-70
2022/05/19 06:34:39;;;;;;;2.53;0.97;;;;;;;12.36;50.48;96817.46;1674199;85;21058;-73
2022/05/19 06:37:06;;;;;;;0.97;0.70;;;;;;;12.53;50.51;96814.72;1674634;86;21182;-72
2022/05/19 06:39:32;;;;;;;2.55;1.00;;;;;;;12.70;47.72;96815.48;1675067;86;21007;-67
2022/05/19 06:42:02;;;;;;;1.22;0.70;;;;;;;12.85;45.39;96805.63;1674927;86;21469;-71
2022/05/19 06:44:38;;;;;;;3.27;1.27;;;;;;;12.99;43.44;96805.95;1675343;86;21086;-68
2022/05/19 06:47:15;;;;;;;1.75;1.10;;;;;;;13.14;44.62;96813.34;1674726;86;21599;-70
2022/05/19 06:49:51;;;;;;;2.70;0.82;;;;;;;13.31;45.16;96808.80;1654242;87;21091;-68
2022/05/19 06:52:22;;;;;;;3.37;1.45;;;;;;;13.44;44.33;96812.20;1678050;85;21064;-69
2022/05/19 06:54:52;;;;;;;1.35;0.78;;;;;;;13.60;44.27;96808.93;1654509;87;21072;-70
2022/05/19 06:57:20;;;;;;;5.78;1.15;;;;;;;13.76;43.30;96817.61;1655062;86;21040;-70
2022/05/19 06:59:49;;;;;;;1.87;0.80;;;;;;;13.90;42.71;96819.63;1661028;86;21073;-69
2022/05/19 07:02:17;;;;;;;4.22;1.67;;;;;;;14.02;41.45;96814.18;1660989;86;21068;-73
2022/05/19 07:04:44;;;;;;;3.60;0.90;;;;;;;14.16;42.23;96812.70;1661202;86;21576;-69
2022/05/19 07:07:12;;;;;;;2.25;0.57;;;;;;;14.23;37.63;96809.03;1631918;88;21060;-69
2022/05/19 07:09:40;;;;;;;2.30;0.88;;;;;;;14.29;37.17;96808.97;1675903;85;21061;-69
2022/05/19 07:12:09;;;;;;;3.98;1.00;;;;;;;14.31;34.36;96807.59;1673781;86;21088;-71
2022/05/19 07:14:37;;;;;;;2.67;1.35;;;;;;;14.42;37.02;96811.00;1673774;86;21073;-72
2022/05/19 07:17:05;;;;;;;3.45;1.30;;;;;;;14.54;36.24;96815.30;1673401;86;21566;-71
2022/05/19 07:22:22;;;;;;;1.72;0.80;;;;;;;14.77;34.28;96819.39;1673857;86;21544;-70
2022/05/19 07:24:49;;;;;;;3.67;0.80;;;;;;;14.86;33.78;96822.75;1673757;86;21070;-72
2022/05/19 07:27:16;;;;;;;3.42;0.90;;;;;;;14.95;32.92;96815.10;1673775;86;21169;-70
2022/05/19 07:29:43;;;;;;;1.98;0.65;;;;;;;15.05;33.86;96815.83;1673505;86;21119;-71
2022/05/19 07:32:09;;;;;;;2.60;0.90;;;;;;;15.08;33.17;96823.29;1674085;86;21030;-68
2022/05/19 07:34:39;;;;;;;1.55;0.60;;;;;;;15.13;33.71;96827.20;1673926;86;21552;-67
2022/05/19 07:37:06;;;;;;;2.92;0.60;;;;;;;15.30;35.61;96826.92;1673863;86;21520;-67
2022/05/19 07:39:33;;;;;;;1.75;0.80;;;;;;;15.44;33.72;96827.99;1673876;86;21057;-69
2022/05/19 07:42:00;;;;;;;2.65;0.93;;;;;;;15.58;35.42;96826.84;1673656;86;21084;-68
2022/05/19 07:44:29;;;;;;;0.85;0.80;;;;;;;15.71;35.10;96822.66;1673617;86;21113;-68
2022/05/19 07:46:55;;;;;;;2.37;0.70;;;;;;;15.83;34.54;96817.56;1673803;86;21030;-68
2022/05/19 07:49:23;;;;;;;7.40;0.88;;;;;;;15.88;33.64;96819.22;1673476;86;21080;-68
2022/05/19 07:51:50;;;;;;;2.37;0.70;;;;;;;16.03;35.79;96820.70;1673715;86;21058;-70
2022/05/19 07:54:21;;;;;;;2.70;0.80;;;;;;;16.15;36.18;96816.45;1673778;86;21046;-70
2022/05/19 07:56:48;;;;;;;3.05;0.80;;;;;;;16.35;36.59;96812.00;1673774;86;21093;-69
2022/05/19 07:59:16;;;;;;;2.77;0.70;;;;;;;16.52;36.22;96815.63;1673252;86;21068;-69
2022/05/19 08:01:45;;;;;;;2.40;1.00;;;;;;;16.55;32.24;96815.55;1673397;86;21073;-74
2022/05/19 08:04:13;;;;;;;2.95;0.70;;;;;;;16.56;30.76;96814.66;1673967;86;21043;-71
2022/05/19 08:06:41;;;;;;;2.55;0.95;;;;;;;16.62;32.06;96821.17;1673516;86;21029;-71
2022/05/19 08:11:53;;;;;;;2.45;0.80;;;;;;;16.84;32.03;96822.05;1673987;86;21018;-68
2022/05/19 08:17:10;;;;;;;1.52;0.65;;;;;;;17.04;31.56;96819.78;1673878;86;21543;-68
2022/05/19 08:19:37;;;;;;;1.75;0.78;;;;;;;17.20;31.08;96820.73;1673530;86;21108;-68
2022/05/19 08:22:08;;;;;;;3.98;0.90;;;;;;;17.23;30.09;96822.84;1673899;86;21014;-68
2022/05/19 08:24:36;;;;;;;4.40;0.65;;;;;;;17.23;29.39;96825.52;1673741;86;21028;-67
2022/05/19 08:27:04;;;;;;;1.85;0.62;;;;;;;17.24;29.25;96831.75;1673576;86;21058;-67
2022/05/19 08:29:31;;;;;;;2.00;0.70;;;;;;;17.21;29.35;96827.37;1672876;86;21049;-67
2022/05/19 08:31:57;;;;;;;2.58;0.80;;;;;;;17.14;27.82;96817.77;1673970;86;21053;-67
2022/05/19 08:34:24;;;;;;;1.42;0.90;;;;;;;17.14;27.82;96817.77;1673219;85;21022;-68
2022/05/19 08:36:51;;;;;;;2.10;0.80;;;;;;;17.26;29.46;96819.23;1688122;85;21038;-70
2022/05/19 08:39:22;;;;;;;1.70;0.70;;;;;;;17.48;29.98;96832.89;1690211;85;21515;-67
2022/05/19 08:41:55;;;;;;;2.15;0.98;;;;;;;17.61;29.39;96826.31;1690311;84;21532;-67
2022/05/19 08:44:48;;;;;;;2.60;0.68;;;;;;;17.61;29.39;96826.31;1690238;85;21041;-67
2022/05/19 08:47:24;;;;;;;3.25;0.78;;;;;;;17.91;30.05;96829.10;1678055;85;21475;-67
2022/05/19 08:49:58;;;;;;;4.85;1.10;;;;;;;17.91;30.05;96829.10;1678702;85;21056;-67
2022/05/19 08:52:28;;;;;;;1.22;0.80;;;;;;;17.82;26.36;96824.04;1674863;85;21013;-69
2022/05/19 08:54:57;;;;;;;3.72;0.88;;;;;;;17.84;26.90;96830.19;1673691;86;21021;-69
2022/05/19 08:57:38;;;;;;;2.17;0.93;;;;;;;17.92;26.63;96830.87;1673354;86;21184;-69
2022/05/19 09:00:34;;;;;;;2.70;1.20;;;;;;;17.92;25.87;96832.21;1673263;86;21064;-69
2022/05/19 09:03:39;;;;;;;3.60;0.70;;;;;;;17.99;25.88;96825.75;1672694;86;21038;-68
2022/05/19 09:06:20;;;;;;;1.15;0.80;;;;;;;17.99;26.32;96824.41;1673808;86;21037;-67
2022/05/19 09:09:09;;;;;;;2.72;1.17;;;;;;;18.15;26.18;96820.41;1671294;86;21018;-68
2022/05/19 09:12:05;;;;;;;2.47;0.80;;;;;;;18.34;28.60;96819.86;1673140;86;21076;-68
2022/05/19 09:14:33;;;;;;;2.17;0.60;;;;;;;18.43;26.01;96820.92;1673214;86;21046;-68
2022/05/19 09:17:08;;;;;;;1.22;1.00;;;;;;;18.62;27.22;96828.38;1666958;86;21034;-68
2022/05/19 09:19:55;;;;;;;1.67;0.57;;;;;;;18.84;27.39;96824.15;1673904;86;21041;-68
2022/05/19 09:22:26;;;;;;;1.32;0.65;;;;;;;18.89;27.71;96826.21;1673519;86;21045;-68
2022/05/19 09:24:54;;;;;;;0.90;0.80;;;;;;;19.03;27.15;96821.30;1673508;86;22270;-68
2022/05/19 09:27:22;;;;;;;0.75;0.60;;;;;;;19.11;25.39;96823.73;1673286;86;21629;-68
2022/05/19 09:29:53;;;;;;;1.72;0.70;;;;;;;19.11;25.95;96813.50;1672605;86;21102;-68
2022/05/19 09:32:38;;;;;;;1.77;0.80;;;;;;;19.29;27.06;96819.56;1672834;86;21022;-67
2022/05/19 09:35:21;;;;;;;4.37;0.82;;;;;;;19.37;25.95;96808.13;1672924;86;21010;-67
2022/05/19 09:38:04;;;;;;;2.17;1.00;;;;;;;19.36;25.25;96815.77;1672736;86;21109;-68
2022/05/19 09:40:36;;;;;;;2.15;0.60;;;;;;;19.48;25.99;96806.88;1644053;86;21129;-67
2022/05/19 09:43:12;;;;;;;4.70;0.98;;;;;;;19.59;25.48;96814.09;1673321;86;21095;-68
2022/05/19 09:45:50;;;;;;;1.65;0.70;;;;;;;19.60;24.90;96807.80;1672105;86;21048;-68
2022/05/19 09:48:27;;;;;;;1.42;0.72;;;;;;;19.66;25.91;96806.27;1673239;86;21078;-68
2022/05/19 09:51:03;;;;;;;5.37;1.12;;;;;;;19.76;26.20;96810.88;1673329;86;21507;-68
2022/05/19 09:53:37;;;;;;;0.78;0.70;;;;;;;19.87;25.31;96806.86;1673653;86;21547;-68
2022/05/19 09:56:12;;;;;;;0.85;0.70;;;;;;;19.84;24.72;96800.75;1672808;86;21116;-68
2022/05/19 09:58:45;;;;;;;2.02;0.60;;;;;;;19.95;24.98;96803.90;1672784;86;21077;-68
2022/05/19 10:01:21;;;;;;;1.82;0.70;;;;;;;20.00;26.00;96801.92;1672844;86;21538;-68
2022/05/19 10:03:55;;;;;;;1.85;0.62;;;;;;;20.19;27.59;96806.63;1672434;86;21129;-68
2022/05/19 10:06:26;;;;;;;1.15;0.60;;;;;;;20.36;26.70;96801.95;1673355;86;21555;-68
2022/05/19 10:09:14;;;;;;;2.42;0.82;;;;;;;20.48;25.91;96802.82;1671836;85;21014;-68
2022/05/19 10:11:50;;;;;;;4.87;1.07;;;;;;;20.42;24.77;96795.03;1673319;86;21050;-67
2022/05/19 10:14:30;;;;;;;2.33;0.80;;;;;;;20.57;26.46;96794.47;1673887;86;20993;-67
2022/05/19 10:17:08;;;;;;;1.70;0.80;;;;;;;20.49;24.47;96798.75;1673357;86;21017;-67
2022/05/19 10:19:55;;;;;;;4.25;1.00;;;;;;;20.43;25.40;96789.59;1673703;86;21010;-67
2022/05/19 10:23:00;;;;;;;2.52;0.80;;;;;;;20.65;25.43;96794.16;1673740;86;21037;-68
2022/05/19 10:25:58;;;;;;;1.72;0.75;;;;;;;20.76;25.90;96782.52;1673429;86;21010;-68
2022/05/19 10:31:47;;;;;;;2.77;0.88;;;;;;;20.66;23.34;96773.10;1673740;86;21483;-68
2022/05/19 10:34:44;;;;;;;3.37;0.80;;;;;;;20.62;23.32;96779.55;1673354;86;21057;-68
2022/05/19 10:37:27;;;;;;;2.87;0.88;;;;;;;20.78;26.25;96775.77;1673736;86;21508;-68
2022/05/19 10:40:19;;;;;;;6.72;1.25;;;;;;;20.99;26.69;96772.23;1673622;86;21028;-68
2022/05/19 10:43:27;;;;;;;2.35;0.88;;;;;;;21.10;24.80;96769.09;1673822;86;21093;-68
2022/05/19 10:45:59;;;;;;;1.37;0.88;;;;;;;21.10;23.96;96765.94;1672710;86;21093;-67
2022/05/19 10:48:52;;;;;;;1.80;0.80;;;;;;;21.22;25.62;96763.66;1673690;86;20994;-67
2022/05/19 10:51:33;;;;;;;1.47;1.00;;;;;;;21.25;25.36;96760.40;1673667;86;21014;-67
2022/05/19 10:54:31;;;;;;;2.10;1.10;;;;;;;21.42;25.63;96754.80;1673178;86;21114;-67
2022/05/19 10:57:38;;;;;;;6.72;0.90;;;;;;;21.45;25.12;96756.03;1673165;86;21069;-67
2022/05/19 11:00:28;;;;;;;3.30;1.00;;;;;;;21.47;26.38;96765.77;1673515;86;21021;-67
2022/05/19 11:03:29;;;;;;;4.37;1.05;;;;;;;21.48;26.06;96763.95;1673520;86;21045;-67
2022/05/19 11:06:09;;;;;;;5.30;0.90;;;;;;;21.61;27.35;96762.47;1673656;86;21021;-68
2022/05/19 11:08:51;;;;;;;1.98;0.85;;;;;;;21.82;25.86;96754.81;1673410;86;21097;-68
2022/05/19 11:11:56;;;;;;;1.27;0.93;;;;;;;21.96;24.51;96756.00;1673321;86;21054;-68
2022/05/19 11:15:11;;;;;;;1.70;1.00;;;;;;;21.84;23.48;96757.41;1673420;86;21299;-68
2022/05/19 11:18:14;;;;;;;2.98;0.80;;;;;;;21.65;27.45;96749.31;1670537;86;21065;-68
2022/05/19 11:20:46;;;;;;;0.80;0.80;;;;;;;21.80;28.05;96747.29;1673901;86;21013;-67
2022/05/19 11:23:26;;;;;;;4.40;0.90;;;;;;;21.94;25.72;96750.68;1673520;86;21018;-67
2022/05/19 11:26:24;;;;;;;1.97;1.10;;;;;;;22.08;27.19;96749.20;1673963;86;21089;-67
2022/05/19 11:29:14;;;;;;;2.42;1.12;;;;;;;22.12;25.06;96743.59;1673587;86;21030;-67
2022/05/19 11:31:59;;;;;;;3.27;0.80;;;;;;;21.96;25.56;96738.05;1673581;86;21050;-67
2022/05/19 11:34:37;;;;;;;2.52;1.10;;;;;;;22.11;25.03;96742.33;1673633;86;21117;-67
2022/05/19 11:37:43;;;;;;;4.58;1.12;;;;;;;21.96;23.55;96738.53;1673414;86;21018;-67
2022/05/19 11:40:20;;;;;;;3.72;0.93;;;;;;;21.92;23.72;96741.81;1673580;86;21484;-67
2022/05/19 11:43:23;;;;;;;2.70;1.00;;;;;;;22.08;24.85;96742.00;1673377;86;21026;-68
2022/05/19 11:46:04;;;;;;;3.10;1.20;;;;;;;22.04;24.28;96739.05;1673551;86;21065;-67
2022/05/19 11:58:04;;;;;;;2.25;1.45;;;;;;;23.17;25.39;96727.39;1665242;86;21085;-67
2022/05/19 12:01:00;;;;;;;2.67;1.10;;;;;;;23.52;22.76;96724.23;1673574;86;21052;-68
2022/05/19 12:03:52;;;;;;;2.10;1.30;;;;;;;23.92;23.30;96726.68;1621534;87;21070;-67
2022/05/19 12:06:30;;;;;;;2.98;1.65;;;;;;;24.34;23.82;96726.17;1680561;85;21072;-68
2022/05/19 12:09:17;;;;;;;4.00;1.30;;;;;;;24.58;22.00;96722.59;1685616;85;21002;-68
2022/05/19 12:11:50;;;;;;;2.08;1.50;;;;;;;24.88;21.55;96720.45;1688233;85;21061;-68
2022/05/19 12:14:31;;;;;;;3.58;1.40;;;;;;;25.20;22.90;96720.42;1689070;85;21025;-68
2022/05/19 12:17:09;;;;;;;2.25;1.10;;;;;;;25.63;20.61;96720.58;1689272;85;21530;-68
2022/05/19 12:19:43;;;;;;;1.17;0.98;;;;;;;25.87;19.78;96722.28;1689136;85;21507;-68
2022/05/19 12:22:33;;;;;;;2.60;1.10;;;;;;;26.10;19.71;96720.84;1689093;85;21073;-68
2022/05/19 12:25:08;;;;;;;2.95;1.12;;;;;;;26.47;20.11;96703.63;1689071;85;20997;-68
2022/05/19 12:27:55;;;;;;;1.60;1.12;;;;;;;26.63;19.87;96707.59;1689122;85;21002;-68
2022/05/19 12:33:32;;;;;;;1.40;1.10;;;;;;;27.36;18.33;96705.42;1689013;85;21077;-68